Time;durP1;ratioP1;P1;durP2;ratioP2;P2;SDS_P1;SDS_P2;PMS_P1;PMS_P2;Temp;Humidity;BMP_temperature;BMP_pressure;BME280_temperature;BME280_humidity;BME280_pressure;Samples;Min_cycle;Max_cycle;Signal;HPM_P1;HPM_P2
2023/12/17 00:00:50;;;;;;;5.73;3.90;;;;;;;19.02;46.21;103736.75;5065826;28;20040;-69
2023/12/17 00:03:16;;;;;;;5.13;3.58;;;;;;;19.00;46.24;103737.75;5065624;28;20273;-67
2023/12/17 00:05:41;;;;;;;5.03;3.40;;;;;;;18.89;46.23;103726.72;5065909;28;20078;-67
2023/12/17 00:08:06;;;;;;;5.95;3.75;;;;;;;18.99;46.06;103736.88;5066069;28;20753;-66
2023/12/17 00:10:31;;;;;;;5.68;3.63;;;;;;;18.97;46.38;103730.78;5065885;28;20033;-68
2023/12/17 00:12:57;;;;;;;6.37;3.80;;;;;;;18.94;46.33;103725.63;5065703;28;20064;-67
2023/12/17 00:15:22;;;;;;;5.80;3.80;;;;;;;18.91;46.05;103720.44;5066204;28;20257;-69
2023/12/17 00:17:48;;;;;;;5.70;3.80;;;;;;;18.85;46.18;103715.44;5067822;28;20463;-67
2023/12/17 00:20:13;;;;;;;7.00;3.92;;;;;;;18.91;46.14;103716.94;5069243;28;20032;-67
2023/12/17 00:22:38;;;;;;;5.65;3.83;;;;;;;18.92;46.08;103726.63;5068283;28;20472;-68
2023/12/17 00:25:04;;;;;;;5.82;3.67;;;;;;;18.84;46.20;103705.78;5068622;28;20119;-67
2023/12/17 00:27:29;;;;;;;5.85;3.65;;;;;;;18.90;46.25;103721.38;5068188;28;20101;-67
2023/12/17 00:29:57;;;;;;;5.50;3.63;;;;;;;18.80;46.38;103704.13;5068425;28;20043;-68
2023/12/17 00:32:22;;;;;;;5.40;3.83;;;;;;;18.86;46.12;103714.50;5068839;28;20836;-67
2023/12/17 00:34:48;;;;;;;5.03;3.60;;;;;;;18.76;46.39;103698.09;5069244;28;21064;-67
2023/12/17 00:37:13;;;;;;;5.55;3.88;;;;;;;18.87;46.20;103716.22;5068876;28;20027;-69
2023/12/17 00:39:38;;;;;;;5.97;3.78;;;;;;;18.79;46.19;103700.63;5069546;28;20032;-67
2023/12/17 00:42:04;;;;;;;6.00;3.87;;;;;;;18.85;46.29;103705.72;5069127;28;20477;-67
2023/12/17 00:44:29;;;;;;;5.93;4.35;;;;;;;18.81;46.31;103693.50;5069195;28;20296;-68
2023/12/17 00:46:54;;;;;;;5.77;3.60;;;;;;;18.79;46.09;103692.69;5068775;28;20935;-68
2023/12/17 00:49:19;;;;;;;6.15;3.53;;;;;;;18.73;46.15;103678.88;5051267;28;20308;-67
2023/12/17 00:51:45;;;;;;;6.33;4.37;;;;;;;18.79;46.30;103695.34;5069269;28;20678;-69
2023/12/17 00:54:10;;;;;;;5.65;3.78;;;;;;;18.80;46.21;103698.84;5068574;28;20346;-68
2023/12/17 00:56:35;;;;;;;5.00;3.63;;;;;;;18.80;46.32;103699.72;5069047;28;20032;-67
2023/12/17 00:59:00;;;;;;;5.50;3.97;;;;;;;18.75;46.59;103695.53;5068728;28;20068;-68
2023/12/17 01:01:26;;;;;;;5.50;3.58;;;;;;;18.80;46.41;103697.09;5068756;28;21065;-67
2023/12/17 01:03:51;;;;;;;5.40;3.97;;;;;;;18.75;46.38;103687.59;5068063;28;20048;-67
2023/12/17 01:06:16;;;;;;;5.40;3.95;;;;;;;18.77;46.40;103686.63;5068443;28;20036;-68
2023/12/17 01:08:42;;;;;;;5.40;3.95;;;;;;;18.71;46.41;103663.09;5068808;28;20532;-67
2023/12/17 01:11:07;;;;;;;5.90;4.15;;;;;;;18.77;46.25;103673.41;5066932;28;20043;-67
2023/12/17 01:13:32;;;;;;;6.30;4.00;;;;;;;18.76;46.23;103676.97;5067796;28;20433;-67
2023/12/17 01:15:58;;;;;;;6.05;4.18;;;;;;;18.75;46.59;103669.94;5068016;28;20024;-66
2023/12/17 01:18:23;;;;;;;5.32;3.90;;;;;;;18.75;46.28;103680.53;5068822;28;20798;-66
2023/12/17 01:20:48;;;;;;;5.67;3.87;;;;;;;18.74;46.19;103673.53;5068323;28;20381;-66
2023/12/17 01:23:13;;;;;;;6.57;4.47;;;;;;;18.73;46.61;103674.44;5067609;28;20262;-67
2023/12/17 01:25:39;;;;;;;5.45;3.92;;;;;;;18.70;46.34;103661.34;5067398;28;20382;-66
2023/12/17 01:28:04;;;;;;;6.47;4.30;;;;;;;18.68;46.47;103664.06;5067494;28;20036;-66
2023/12/17 01:30:30;;;;;;;5.93;4.43;;;;;;;18.72;46.27;103677.16;5067173;28;20033;-67
2023/12/17 01:32:58;;;;;;;6.15;4.63;;;;;;;18.71;46.29;103668.38;5067207;28;20033;-67
2023/12/17 01:35:23;;;;;;;5.97;4.53;;;;;;;18.68;46.46;103676.41;5067454;28;20491;-66
2023/12/17 01:37:49;;;;;;;5.68;4.35;;;;;;;18.69;46.58;103683.41;5067538;28;20024;-66
2023/12/17 01:40:14;;;;;;;6.15;4.20;;;;;;;18.66;46.43;103683.56;5067539;28;20476;-67
2023/12/17 01:42:39;;;;;;;6.38;4.13;;;;;;;18.56;46.58;103671.59;5067051;28;20037;-66
2023/12/17 01:45:06;;;;;;;6.10;4.50;;;;;;;18.68;46.51;103686.97;5067247;28;20421;-66
2023/12/17 01:47:31;;;;;;;5.80;4.35;;;;;;;18.57;46.45;103670.69;5066332;28;20068;-69
2023/12/17 01:49:56;;;;;;;5.43;3.97;;;;;;;18.61;46.44;103682.84;5066990;28;20032;-67
2023/12/17 01:52:22;;;;;;;5.78;4.20;;;;;;;18.63;46.27;103688.94;5067686;28;20512;-67
2023/12/17 01:54:47;;;;;;;5.55;4.15;;;;;;;18.63;46.47;103687.16;5068160;28;20059;-67
2023/12/17 01:57:13;;;;;;;5.63;4.15;;;;;;;18.55;46.37;103678.69;5067598;28;20033;-67
2023/12/17 01:59:39;;;;;;;6.00;3.88;;;;;;;18.53;46.41;103677.84;5067420;28;20421;-67
2023/12/17 02:02:04;;;;;;;5.60;4.40;;;;;;;18.59;46.62;103693.47;5067056;28;20493;-67
2023/12/17 02:04:30;;;;;;;6.47;4.10;;;;;;;18.62;46.35;103698.63;5067410;28;20036;-66
2023/12/17 02:06:55;;;;;;;5.55;4.25;;;;;;;18.54;46.58;103691.94;5067217;28;20024;-67
2023/12/17 02:09:20;;;;;;;6.50;4.60;;;;;;;18.62;46.66;103703.06;5066827;28;20066;-67
2023/12/17 02:11:46;;;;;;;5.85;4.18;;;;;;;18.59;46.36;103697.91;5066987;28;20265;-67
2023/12/17 02:14:11;;;;;;;5.07;4.10;;;;;;;18.56;46.57;103696.22;5066812;28;20457;-66
2023/12/17 02:16:36;;;;;;;5.85;3.83;;;;;;;18.58;46.15;103694.41;5066069;28;20037;-67
2023/12/17 02:19:02;;;;;;;7.50;3.90;;;;;;;18.49;46.44;103682.41;5066787;28;20027;-66
2023/12/17 02:21:27;;;;;;;5.10;4.15;;;;;;;18.59;46.44;103697.91;5066507;28;20249;-66
2023/12/17 02:23:53;;;;;;;6.23;4.47;;;;;;;18.58;46.58;103699.69;5065233;28;20023;-66
2023/12/17 02:26:18;;;;;;;5.35;3.90;;;;;;;18.58;46.63;103704.09;5065784;28;20332;-66
2023/12/17 02:28:45;;;;;;;6.38;4.10;;;;;;;18.53;46.60;103682.28;5048224;28;20119;-66
2023/12/17 02:31:10;;;;;;;5.20;3.72;;;;;;;18.56;46.33;103687.44;5066556;28;20081;-66
2023/12/17 02:33:35;;;;;;;7.25;4.43;;;;;;;18.58;46.51;103693.53;5066244;28;20028;-67
2023/12/17 02:36:01;;;;;;;5.60;4.30;;;;;;;18.57;46.45;103694.47;5066208;28;20035;-69
2023/12/17 02:38:26;;;;;;;5.53;4.20;;;;;;;18.54;46.32;103681.38;5066220;28;20265;-67
2023/12/17 02:40:51;;;;;;;5.35;4.05;;;;;;;18.56;46.45;103687.44;5065424;28;20036;-68
2023/12/17 02:43:17;;;;;;;5.80;4.10;;;;;;;18.46;46.50;103676.38;5066338;28;20036;-68
2023/12/17 02:45:42;;;;;;;7.10;4.30;;;;;;;18.43;46.68;103676.50;5065934;28;20075;-67
2023/12/17 02:48:07;;;;;;;5.97;4.10;;;;;;;18.35;46.80;103660.09;5066098;28;20052;-67
2023/12/17 02:50:32;;;;;;;6.40;4.63;;;;;;;18.53;46.55;103685.78;5066390;28;20257;-68
2023/12/17 02:52:58;;;;;;;5.78;4.03;;;;;;;18.54;46.41;103686.66;5065682;28;20266;-67
2023/12/17 02:55:23;;;;;;;6.33;4.07;;;;;;;18.49;46.45;103678.91;5065849;28;20086;-68
2023/12/17 02:57:48;;;;;;;5.55;3.95;;;;;;;18.52;46.54;103683.19;5065953;28;20272;-68
2023/12/17 03:00:14;;;;;;;5.25;4.10;;;;;;;18.40;46.69;103664.25;5065653;28;20036;-68
2023/12/17 03:02:39;;;;;;;5.45;4.18;;;;;;;18.46;46.42;103679.88;5064714;28;20085;-67
2023/12/17 03:05:05;;;;;;;5.63;4.30;;;;;;;18.46;46.59;103681.66;5065242;28;20032;-68
2023/12/17 03:07:30;;;;;;;5.15;3.75;;;;;;;18.42;46.52;103665.09;5048420;28;20746;-67
2023/12/17 03:09:55;;;;;;;5.15;3.45;;;;;;;18.50;46.63;103672.72;5066882;28;20115;-67
2023/12/17 03:12:21;;;;;;;6.10;4.22;;;;;;;18.40;46.43;103658.13;5066546;28;20169;-67
2023/12/17 03:14:46;;;;;;;5.50;3.88;;;;;;;18.46;46.32;103664.03;5066808;28;20381;-67
2023/12/17 03:17:11;;;;;;;5.10;3.78;;;;;;;18.48;46.57;103678.06;5066546;28;20385;-67
2023/12/17 03:19:37;;;;;;;4.60;3.53;;;;;;;18.38;46.50;103666.09;5066390;28;20047;-67
2023/12/17 03:22:02;;;;;;;5.10;3.60;;;;;;;18.39;46.54;103664.31;5065958;28;20115;-67
2023/12/17 03:24:27;;;;;;;4.70;3.42;;;;;;;18.46;46.59;103677.22;5065752;28;20036;-67
2023/12/17 03:26:53;;;;;;;4.35;3.05;;;;;;;18.36;46.54;103654.75;5065460;28;20028;-67
2023/12/17 03:29:18;;;;;;;5.35;3.67;;;;;;;18.47;46.46;103662.28;5065189;28;20542;-66
2023/12/17 03:31:43;;;;;;;4.90;3.40;;;;;;;18.37;46.48;103650.31;5065917;28;20029;-66
2023/12/17 03:34:09;;;;;;;5.23;3.33;;;;;;;18.38;46.73;103646.78;5065831;28;20036;-66
2023/12/17 03:36:34;;;;;;;4.75;3.47;;;;;;;18.42;46.39;103661.56;5065726;28;20261;-66
2023/12/17 03:38:59;;;;;;;4.82;3.42;;;;;;;18.43;46.69;103661.50;5066079;28;20037;-67
2023/12/17 03:41:27;;;;;;;4.77;3.20;;;;;;;18.36;46.87;103654.75;5066107;28;20033;-67
2023/12/17 03:43:54;;;;;;;6.88;3.67;;;;;;;18.42;46.69;103665.09;5066210;28;20265;-66
2023/12/17 03:46:21;;;;;;;3.97;2.83;;;;;;;18.42;46.56;103665.09;5066032;28;20174;-67
2023/12/17 03:48:46;;;;;;;4.45;2.92;;;;;;;18.41;46.58;103659.84;5065949;28;20029;-67
2023/12/17 03:51:12;;;;;;;4.70;3.10;;;;;;;18.41;46.75;103652.78;5066478;28;20055;-66
2023/12/17 03:53:37;;;;;;;4.80;2.88;;;;;;;18.34;46.51;103637.22;5070051;28;20036;-67
2023/12/17 03:56:02;;;;;;;4.20;2.80;;;;;;;18.30;46.58;103634.72;5070155;28;20040;-67
2023/12/17 03:58:30;;;;;;;4.43;2.92;;;;;;;18.30;46.82;103628.56;5070280;28;20062;-67
2023/12/17 04:00:56;;;;;;;4.68;2.90;;;;;;;18.37;46.61;103645.03;5070084;28;20033;-67
2023/12/17 04:03:21;;;;;;;4.70;3.10;;;;;;;18.28;46.62;103630.44;5069835;28;20059;-66
2023/12/17 04:05:46;;;;;;;5.00;3.10;;;;;;;18.38;46.61;103639.69;5069831;28;20039;-66
2023/12/17 04:08:11;;;;;;;4.20;2.50;;;;;;;18.41;46.81;103644.00;5069248;28;20372;-67
2023/12/17 04:10:37;;;;;;;4.20;2.80;;;;;;;18.36;46.66;103627.47;5068688;28;20311;-67
2023/12/17 04:13:02;;;;;;;4.40;2.72;;;;;;;18.40;46.82;103635.22;5068840;28;20028;-67
2023/12/17 04:15:27;;;;;;;4.25;2.72;;;;;;;18.39;46.72;103625.59;5068792;28;20036;-66
2023/12/17 04:17:53;;;;;;;4.75;2.72;;;;;;;18.31;46.61;103617.97;5069254;28;20492;-67
2023/12/17 04:20:18;;;;;;;4.63;2.90;;;;;;;18.36;46.71;103624.81;5069150;28;20025;-67
2023/12/17 04:22:43;;;;;;;4.22;2.63;;;;;;;18.37;46.89;103627.41;5068552;28;20048;-67
2023/12/17 04:25:09;;;;;;;4.68;2.80;;;;;;;18.39;46.71;103630.88;5068142;28;20614;-66
2023/12/17 04:27:34;;;;;;;4.38;2.63;;;;;;;18.39;46.51;103624.72;5068286;28;20481;-67
2023/12/17 04:29:59;;;;;;;4.55;2.80;;;;;;;18.38;46.75;103625.66;5068541;28;20530;-68
2023/12/17 04:32:25;;;;;;;4.10;2.63;;;;;;;18.39;46.39;103624.72;5068421;28;20028;-66
2023/12/17 04:34:55;;;;;;;4.13;2.40;;;;;;;18.35;46.54;103616.06;5068829;28;20352;-67
2023/12/17 04:37:20;;;;;;;3.92;2.50;;;;;;;18.29;46.68;103603.09;5068982;28;20059;-67
2023/12/17 04:39:46;;;;;;;4.10;2.50;;;;;;;18.34;46.44;103618.75;5068457;28;20032;-67
2023/12/17 04:42:11;;;;;;;4.00;2.43;;;;;;;18.28;46.57;103609.31;5068340;28;20028;-67
2023/12/17 04:44:36;;;;;;;4.70;2.95;;;;;;;18.36;46.38;103628.34;5068431;28;20761;-67
2023/12/17 04:47:02;;;;;;;5.53;2.50;;;;;;;18.31;46.65;103625.88;5067984;28;20053;-67
2023/12/17 04:49:27;;;;;;;4.38;2.38;;;;;;;18.34;46.62;103624.91;5067250;28;20063;-67
2023/12/17 04:51:52;;;;;;;4.32;2.80;;;;;;;18.33;46.60;103622.34;5067017;28;20034;-67
2023/12/17 04:54:18;;;;;;;4.53;2.60;;;;;;;18.29;46.68;103619.81;5066881;28;20058;-67
2023/12/17 04:56:43;;;;;;;5.47;2.65;;;;;;;18.29;46.49;103616.28;5067059;28;20060;-67
2023/12/17 04:59:08;;;;;;;4.50;2.53;;;;;;;18.32;46.44;103624.09;5066674;28;20648;-68
2023/12/17 05:01:33;;;;;;;4.70;2.83;;;;;;;18.33;46.54;103622.34;5048671;28;20039;-66
2023/12/17 05:03:59;;;;;;;4.22;2.78;;;;;;;18.22;46.42;103607.75;5065877;28;20702;-68
2023/12/17 05:06:24;;;;;;;4.53;2.55;;;;;;;18.33;46.48;103619.69;5066367;28;20036;-68
2023/12/17 05:08:49;;;;;;;4.32;2.65;;;;;;;18.20;46.47;103604.31;5066497;28;20028;-67
2023/12/17 05:11:14;;;;;;;3.95;2.78;;;;;;;18.23;46.59;103603.31;5066938;28;20036;-67
2023/12/17 05:13:40;;;;;;;4.53;2.27;;;;;;;18.21;46.60;103595.47;5066820;28;20028;-67
2023/12/17 05:16:06;;;;;;;4.23;2.47;;;;;;;18.28;46.63;103610.16;5066936;28;20669;-69
2023/12/17 05:18:31;;;;;;;4.05;2.58;;;;;;;18.27;46.54;103611.06;5066474;28;21081;-68
2023/12/17 05:20:56;;;;;;;4.07;2.63;;;;;;;18.17;46.42;103595.66;5066721;28;20068;-66
2023/12/17 05:23:21;;;;;;;4.93;2.90;;;;;;;18.25;46.51;103612.91;5066966;28;20032;-67
2023/12/17 05:25:47;;;;;;;4.07;2.73;;;;;;;18.28;46.60;103611.94;5067064;28;20036;-67
2023/12/17 05:28:12;;;;;;;4.30;2.50;;;;;;;18.21;46.78;103602.53;5067451;28;20265;-67
2023/12/17 05:30:37;;;;;;;4.10;2.42;;;;;;;18.24;46.69;103611.19;5066922;28;20032;-67
2023/12/17 05:33:03;;;;;;;4.32;2.63;;;;;;;18.26;46.68;103609.38;5067232;28;20040;-67
2023/12/17 05:35:28;;;;;;;4.57;2.67;;;;;;;18.17;46.68;103600.94;5066947;28;20044;-67
2023/12/17 05:37:53;;;;;;;4.50;2.70;;;;;;;18.22;46.67;103614.81;5067126;28;20037;-67
2023/12/17 05:40:19;;;;;;;4.22;2.70;;;;;;;18.25;46.91;103615.56;5066320;28;20273;-67
2023/12/17 05:42:44;;;;;;;4.43;2.97;;;;;;;18.19;46.48;103599.94;5066074;28;20032;-67
2023/12/17 05:45:10;;;;;;;3.87;2.50;;;;;;;18.24;46.62;103613.81;5065747;28;20076;-67
2023/12/17 05:47:35;;;;;;;4.03;2.53;;;;;;;18.25;46.57;103617.34;5029682;28;1045591;-67
2023/12/17 05:50:01;;;;;;;4.28;2.60;;;;;;;18.12;46.74;103591.41;5067309;28;20081;-68
2023/12/17 05:52:27;;;;;;;4.05;2.42;;;;;;;18.25;46.62;103609.41;5067735;28;20381;-67
2023/12/17 05:54:52;;;;;;;4.72;2.70;;;;;;;18.21;46.57;103605.16;5067990;28;20047;-67
2023/12/17 05:57:18;;;;;;;4.40;2.50;;;;;;;18.24;46.91;103605.06;5068135;28;20174;-67
2023/12/17 05:59:43;;;;;;;4.28;2.60;;;;;;;18.19;46.33;103588.53;5067913;28;20258;-67
2023/12/17 06:02:08;;;;;;;5.50;2.17;;;;;;;18.19;46.77;103589.38;5066471;28;20453;-67
2023/12/17 06:04:33;;;;;;;4.47;2.67;;;;;;;18.16;46.49;103581.59;5067215;28;20044;-67
2023/12/17 06:06:59;;;;;;;4.03;2.27;;;;;;;18.22;46.22;103598.97;5067463;28;20043;-67
2023/12/17 06:09:25;;;;;;;3.97;2.38;;;;;;;18.22;46.44;103599.81;5066485;28;20291;-67
2023/12/17 06:11:50;;;;;;;3.80;2.38;;;;;;;18.15;46.47;103590.44;5066442;28;20031;-67
2023/12/17 06:14:17;;;;;;;4.00;2.30;;;;;;;18.23;46.53;103601.56;5066451;28;20040;-69
2023/12/17 06:16:42;;;;;;;4.05;2.20;;;;;;;18.13;46.60;103590.50;5066281;28;20032;-67
2023/12/17 06:19:08;;;;;;;4.03;2.20;;;;;;;18.20;46.42;103596.41;5066731;28;20032;-67
2023/12/17 06:21:33;;;;;;;3.30;1.70;;;;;;;18.22;45.99;103591.06;5066004;28;20037;-68
2023/12/17 06:23:58;;;;;;;3.78;1.90;;;;;;;18.30;46.45;103602.19;5067293;28;20032;-66
2023/12/17 06:26:24;;;;;;;3.35;1.80;;;;;;;18.31;46.20;103603.91;5067122;28;20063;-68
2023/12/17 06:28:50;;;;;;;3.10;1.55;;;;;;;18.26;46.17;103601.44;5066993;28;20040;-67
2023/12/17 06:31:16;;;;;;;3.22;1.70;;;;;;;18.38;46.30;103609.81;5066994;28;20040;-67
2023/12/17 06:33:41;;;;;;;2.63;1.38;;;;;;;18.40;46.13;103608.81;5067180;28;20119;-67
2023/12/17 06:36:07;;;;;;;3.05;1.50;;;;;;;18.33;46.04;103595.94;5067099;28;20119;-67
2023/12/17 06:38:32;;;;;;;2.97;1.58;;;;;;;18.45;46.25;103606.88;5066050;28;20076;-68
2023/12/17 06:40:57;;;;;;;2.72;1.40;;;;;;;18.41;46.08;103602.63;5066220;28;20025;-67
2023/12/17 06:43:23;;;;;;;3.05;1.50;;;;;;;18.51;46.20;103615.47;5066381;28;20129;-68
2023/12/17 06:45:48;;;;;;;2.95;1.38;;;;;;;18.44;46.24;103594.56;5066302;28;20025;-65
2023/12/17 06:48:13;;;;;;;2.40;1.30;;;;;;;18.57;45.98;103615.22;5065909;28;20056;-67
2023/12/17 06:50:39;;;;;;;2.63;1.48;;;;;;;18.48;46.20;103593.56;5066497;28;20032;-69
2023/12/17 06:53:04;;;;;;;3.42;1.63;;;;;;;18.59;46.34;103610.75;5066421;28;20036;-66
2023/12/17 06:55:29;;;;;;;2.80;1.30;;;;;;;18.60;46.34;103602.75;5047699;28;20445;-69
2023/12/17 06:57:54;;;;;;;2.70;1.40;;;;;;;18.60;46.15;103608.03;5065838;28;20060;-67
2023/12/17 07:00:20;;;;;;;3.22;1.60;;;;;;;18.64;45.96;103607.00;5065795;28;20021;-67
2023/12/17 07:02:45;;;;;;;3.08;1.23;;;;;;;18.65;46.02;103598.13;5064659;28;20123;-67
2023/12/17 07:05:11;;;;;;;3.13;1.40;;;;;;;18.56;46.08;103577.38;5065542;28;20410;-68
2023/12/17 07:07:36;;;;;;;3.63;1.40;;;;;;;18.66;45.82;103597.22;5066014;28;20354;-67
2023/12/17 07:10:02;;;;;;;2.80;1.40;;;;;;;18.57;46.14;103576.47;5066238;28;20028;-67
2023/12/17 07:12:27;;;;;;;2.50;1.33;;;;;;;18.68;46.15;103598.03;5065474;28;20036;-66
2023/12/17 07:14:52;;;;;;;2.93;1.33;;;;;;;18.66;45.94;103594.59;5065896;28;20028;-67
2023/12/17 07:17:18;;;;;;;2.85;1.40;;;;;;;18.66;45.96;103597.22;5065703;28;20277;-67
2023/12/17 07:19:43;;;;;;;3.08;1.40;;;;;;;18.71;45.94;103601.44;5065702;28;20028;-65
2023/12/17 07:22:09;;;;;;;2.97;1.25;;;;;;;18.66;45.74;103596.38;5065782;28;21474;-66
2023/12/17 07:24:34;;;;;;;2.65;1.23;;;;;;;18.60;45.82;103593.97;5065490;28;20048;-66
2023/12/17 07:26:59;;;;;;;3.58;1.45;;;;;;;18.70;45.87;103603.25;5065341;28;20624;-66
2023/12/17 07:29:25;;;;;;;2.15;1.20;;;;;;;18.63;45.87;103589.44;5065715;28;20469;-66
2023/12/17 07:31:50;;;;;;;2.95;1.50;;;;;;;18.71;45.76;103596.16;5065000;28;20529;-67
2023/12/17 07:34:16;;;;;;;3.13;1.23;;;;;;;18.71;45.87;103597.06;5065843;28;20032;-66
2023/12/17 07:36:41;;;;;;;2.88;1.40;;;;;;;18.68;45.83;103603.31;5065589;28;20373;-66
2023/12/17 07:39:07;;;;;;;2.38;1.30;;;;;;;18.70;45.69;103610.31;5065243;28;20509;-66
2023/12/17 07:41:32;;;;;;;2.83;1.35;;;;;;;18.57;45.60;103591.47;5065028;28;20070;-67
2023/12/17 07:43:57;;;;;;;3.03;1.45;;;;;;;18.70;45.90;103613.81;5064222;28;20036;-66
2023/12/17 07:46:22;;;;;;;2.85;1.38;;;;;;;18.58;45.76;103594.03;5064939;28;20036;-67
2023/12/17 07:48:48;;;;;;;2.00;1.10;;;;;;;18.66;45.58;103615.72;5065240;28;20387;-66
2023/12/17 07:51:13;;;;;;;2.83;1.60;;;;;;;18.58;45.50;103604.59;5065251;28;20025;-67
2023/12/17 07:53:38;;;;;;;4.07;1.43;;;;;;;18.60;45.67;103599.25;5064592;28;20060;-67
2023/12/17 07:56:07;;;;;;;2.70;1.42;;;;;;;18.65;45.55;103613.13;5065198;28;20265;-67
2023/12/17 07:58:32;;;;;;;3.28;1.50;;;;;;;18.66;45.61;103607.78;5064498;28;20477;-66
2023/12/17 08:00:58;;;;;;;2.58;1.50;;;;;;;18.62;45.45;103613.25;5065249;28;20039;-67
2023/12/17 08:03:26;;;;;;;3.13;1.50;;;;;;;18.59;45.57;103606.31;5064173;28;20082;-68
2023/12/17 08:05:52;;;;;;;3.05;1.60;;;;;;;18.59;45.52;103614.22;5064628;28;20071;-68
2023/12/17 08:08:18;;;;;;;3.38;1.60;;;;;;;18.69;45.92;103641.13;5065046;28;20465;-68
2023/12/17 08:10:44;;;;;;;3.58;1.60;;;;;;;18.69;45.76;103635.84;5065946;28;20032;-67
2023/12/17 08:13:09;;;;;;;2.67;1.33;;;;;;;18.59;45.46;103616.03;5065750;28;20522;-67
2023/12/17 08:15:34;;;;;;;2.65;1.40;;;;;;;18.64;45.77;103624.63;5065644;28;20024;-67
2023/12/17 08:18:00;;;;;;;2.50;1.27;;;;;;;18.68;45.73;103632.34;5065448;28;20138;-67
2023/12/17 08:20:25;;;;;;;2.80;1.30;;;;;;;18.58;45.69;103615.16;5065745;28;20431;-66
2023/12/17 08:22:51;;;;;;;2.72;1.30;;;;;;;18.65;45.79;103615.78;5065752;28;20452;-67
2023/12/17 08:25:16;;;;;;;3.00;1.30;;;;;;;18.68;46.04;103635.00;5065476;28;20032;-67
2023/12/17 08:27:41;;;;;;;2.97;1.48;;;;;;;18.59;45.92;103605.44;5065675;28;20024;-67
2023/12/17 08:30:07;;;;;;;3.28;1.60;;;;;;;18.69;45.93;103622.63;5065524;28;20035;-67
2023/12/17 08:32:33;;;;;;;2.70;1.58;;;;;;;18.64;46.12;103630.78;5065319;28;20051;-68
2023/12/17 08:34:59;;;;;;;2.90;1.45;;;;;;;18.65;46.07;103626.34;5065618;28;20362;-67
2023/12/17 08:37:29;;;;;;;2.70;1.27;;;;;;;18.62;45.95;103622.03;5065329;28;20390;-68
2023/12/17 08:39:54;;;;;;;2.80;1.40;;;;;;;18.70;46.00;103645.50;5068431;28;20031;-69
2023/12/17 08:42:21;;;;;;;3.55;1.30;;;;;;;18.70;46.07;103642.88;5068179;28;20032;-67
2023/12/17 08:44:47;;;;;;;3.00;1.30;;;;;;;18.71;46.46;103646.34;5067948;28;20527;-68
2023/12/17 08:47:12;;;;;;;2.72;1.50;;;;;;;18.69;46.23;103643.78;5068209;28;20086;-67
2023/12/17 08:49:37;;;;;;;2.70;1.33;;;;;;;18.31;46.10;103578.34;5068204;28;20097;-68
2023/12/17 08:52:03;;;;;;;3.42;1.30;;;;;;;18.61;46.29;103622.97;5067984;28;20166;-67
2023/12/17 08:54:28;;;;;;;2.47;1.20;;;;;;;18.71;46.23;103641.06;5068480;28;20032;-66
2023/12/17 08:56:54;;;;;;;3.47;1.55;;;;;;;18.72;46.33;103645.44;5065080;28;20666;-66
2023/12/17 08:59:19;;;;;;;4.97;1.80;;;;;;;18.75;46.73;103650.59;5067350;28;20032;-67
2023/12/17 09:01:44;;;;;;;2.80;1.60;;;;;;;18.66;46.88;103630.72;5067981;28;20032;-67
2023/12/17 09:04:09;;;;;;;3.90;1.70;;;;;;;18.69;47.18;103638.50;5066936;28;20028;-67
2023/12/17 09:06:45;;;;;;;5.03;2.40;;;;;;;18.81;47.87;103648.56;5066699;28;20254;-67
2023/12/17 09:09:12;;;;;;;6.88;2.38;;;;;;;18.87;47.87;103646.63;5067631;28;20344;-67
2023/12/17 09:11:37;;;;;;;5.22;2.20;;;;;;;18.89;48.04;103643.03;5067860;28;20089;-67
2023/12/17 09:14:02;;;;;;;5.47;2.67;;;;;;;18.89;48.00;103636.88;5067711;28;20447;-68
2023/12/17 09:16:28;;;;;;;7.18;2.38;;;;;;;18.92;48.02;103642.91;5068005;28;20032;-67
2023/12/17 09:18:53;;;;;;;7.30;2.60;;;;;;;18.91;48.00;103642.97;5049526;28;20042;-67
2023/12/17 09:21:19;;;;;;;5.47;2.35;;;;;;;18.91;48.08;103645.59;5067633;28;20807;-66
2023/12/17 09:23:44;;;;;;;5.20;2.33;;;;;;;18.94;48.26;103648.13;5067945;28;20073;-67
2023/12/17 09:26:09;;;;;;;5.95;2.58;;;;;;;18.82;48.41;103634.47;5067739;28;20561;-67
2023/12/17 09:28:35;;;;;;;4.80;2.27;;;;;;;18.84;48.14;103637.91;5067556;28;20484;-67
2023/12/17 09:31:01;;;;;;;9.05;3.00;;;;;;;18.84;47.87;103635.28;5068002;28;20261;-67
2023/12/17 09:33:26;;;;;;;6.07;2.38;;;;;;;18.78;47.89;103626.72;5067198;28;20082;-65
2023/12/17 09:35:51;;;;;;;5.55;2.50;;;;;;;18.93;47.80;103647.28;5067666;28;20032;-66
2023/12/17 09:38:17;;;;;;;5.07;2.53;;;;;;;18.93;47.94;103652.56;5067490;28;20033;-66
2023/12/17 09:40:46;;;;;;;6.00;2.95;;;;;;;18.82;47.69;103639.75;5049148;28;20039;-67
2023/12/17 09:43:13;;;;;;;5.38;3.10;;;;;;;18.84;47.50;103645.84;5067106;28;20029;-67
2023/12/17 09:45:40;;;;;;;6.10;3.20;;;;;;;18.84;47.52;103635.28;5067308;28;20123;-68
2023/12/17 09:48:06;;;;;;;6.43;2.80;;;;;;;18.91;47.45;103648.25;5066746;28;20048;-67
2023/12/17 09:50:31;;;;;;;4.70;2.78;;;;;;;18.89;47.29;103650.94;5065910;28;20685;-69
2023/12/17 09:52:56;;;;;;;5.35;2.70;;;;;;;18.82;47.23;103641.53;5067032;28;20036;-67
2023/12/17 09:55:22;;;;;;;5.10;2.50;;;;;;;18.89;47.34;103656.22;5066176;28;20028;-68
2023/12/17 09:57:47;;;;;;;5.63;2.67;;;;;;;18.82;47.30;103638.88;5066264;28;20062;-66
2023/12/17 10:00:14;;;;;;;6.00;3.08;;;;;;;18.91;46.87;103656.19;5066679;28;20883;-68
2023/12/17 10:02:39;;;;;;;5.57;2.67;;;;;;;18.89;47.17;103650.94;5065360;28;20033;-68
2023/12/17 10:05:06;;;;;;;5.70;3.05;;;;;;;18.77;47.03;103636.44;5065973;28;20047;-68
2023/12/17 10:07:31;;;;;;;5.10;2.80;;;;;;;18.76;46.88;103634.69;5066152;28;20035;-67
2023/12/17 10:09:57;;;;;;;5.95;2.60;;;;;;;18.80;46.97;103638.94;5067031;28;20020;-68
2023/12/17 10:12:22;;;;;;;5.88;2.90;;;;;;;18.89;47.01;103652.75;5067019;28;20035;-68
2023/12/17 10:14:47;;;;;;;4.55;2.45;;;;;;;18.86;46.93;103651.06;5066805;28;20119;-68
2023/12/17 10:17:12;;;;;;;5.13;2.63;;;;;;;18.89;46.72;103664.16;5066076;28;20565;-68
2023/12/17 10:19:38;;;;;;;4.88;2.88;;;;;;;18.89;46.91;103663.31;5066308;28;20448;-68
2023/12/17 10:22:07;;;;;;;5.95;3.08;;;;;;;18.89;46.95;103652.75;5066752;28;20119;-68
2023/12/17 10:24:37;;;;;;;5.88;3.88;;;;;;;18.81;46.36;103650.38;5065722;28;20039;-67
2023/12/17 10:27:14;;;;;;;5.60;2.78;;;;;;;18.88;46.71;103656.28;5065479;28;20039;-68
2023/12/17 10:29:41;;;;;;;5.75;3.38;;;;;;;18.78;46.51;103634.63;5065398;28;20036;-67
2023/12/17 10:32:08;;;;;;;6.47;3.72;;;;;;;18.89;46.75;103655.38;5065235;28;20489;-67
2023/12/17 10:34:34;;;;;;;6.25;3.72;;;;;;;18.84;46.63;103645.84;5064242;28;20882;-69
2023/12/17 10:37:03;;;;;;;7.70;3.70;;;;;;;18.87;46.86;103644.88;5064688;28;21236;-68
2023/12/17 10:39:31;;;;;;;5.68;3.28;;;;;;;18.87;46.79;103634.31;5065671;28;20032;-68
2023/12/17 10:41:58;;;;;;;5.90;3.30;;;;;;;18.83;46.69;103628.25;5065277;28;20029;-66
2023/12/17 10:44:25;;;;;;;5.75;3.42;;;;;;;18.88;46.59;103629.88;5064605;28;20025;-67
2023/12/17 10:46:54;;;;;;;6.57;3.58;;;;;;;18.78;46.58;103608.22;5065159;28;20512;-68
2023/12/17 10:49:20;;;;;;;6.57;3.25;;;;;;;18.75;46.49;103597.78;5064413;28;20157;-68
2023/12/17 10:51:48;;;;;;;5.28;3.22;;;;;;;18.85;46.68;103617.66;5064646;28;20071;-68
2023/12/17 10:54:13;;;;;;;6.43;3.67;;;;;;;18.88;46.57;103614.00;5064702;28;20035;-68
2023/12/17 10:56:44;;;;;;;7.18;4.03;;;;;;;18.89;46.53;103613.09;5065435;28;20037;-68
2023/12/17 10:59:13;;;;;;;5.63;3.42;;;;;;;18.77;46.41;103588.88;5065253;28;20025;-66
2023/12/17 11:01:41;;;;;;;7.07;3.45;;;;;;;18.79;46.53;103591.47;5065231;28;20047;-67
2023/12/17 11:04:07;;;;;;;6.32;3.25;;;;;;;18.77;46.37;103586.22;5064350;28;20071;-66
2023/12/17 11:06:33;;;;;;;7.13;3.88;;;;;;;18.85;46.26;103597.38;5065198;28;20032;-66
2023/12/17 11:08:58;;;;;;;9.80;3.95;;;;;;;18.85;46.31;103593.88;5047081;28;20035;-68
2023/12/17 11:11:24;;;;;;;8.13;4.07;;;;;;;18.85;46.10;103592.09;5064767;28;20055;-68
2023/12/17 11:13:49;;;;;;;5.90;3.67;;;;;;;18.87;46.32;103594.66;5064840;28;20066;-67
2023/12/17 11:16:24;;;;;;;6.93;3.72;;;;;;;18.84;46.39;103585.06;5064757;28;20476;-66